Elgin, Arizona
Current Conditions -  °F | °C
As of 10:56 AM on Wednesday 28 Jan 2015 (Local Time) from KALK Reporting Station
Clear Clear  
Wind Chill: 63°   Ceiling: Unl
Heat Index: 63°   Visibility: 10mi
Dew Point: 44°   Wind: 8mph
Humidity: 50%   Direction: 80°E
Pressure: 30.26"   Gusts: NA
Location:  31.66°N, 110.53°W
Report Text: KALK 281756Z AUTO 08007KT 10SM CLR 17/07 A3026 RMK AO2 SLP186 T01720067 10172 20050 58002 TSNO
Loading
Personal Weather Stations






























Interactive Weather Map New forecast layout! Learn more

10-Day Weather Forecast

Advertisements
Track Severe Weather on mobile